Terminal Aerodrome Forecast
Issued by NWS

Home | Current Version | Previous Version | Text Only | Print | Product List | Glossary On
Versions: 1 2 3 4 5 6 7 8 9 10 11 12 13 14
000
FTAK31 PAJN 191100
TAFAWG
TAF
PAWG 191130Z 1912/2012 10007KT P6SM -RA BKN025 OVC035
     FM191600 10007KT P6SM SCT030 BKN060
     FM192200 11014KT P6SM SCT030 BKN060
     FM200300 09007KT P6SM -RA BKN035 OVC050
     FM200700 10010KT 4SM -RA BR BKN030 OVC040
      AMD LTD TO CLD VIS AND WIND 1912/1915=

USA.gov is the U.S. government's official web portal to all federal, state and local government web resources and services.